Time;durP1;ratioP1;P1;durP2;ratioP2;P2;SDS_P1;SDS_P2;PMS_P1;PMS_P2;Temp;Humidity;BMP_temperature;BMP_pressure;BME280_temperature;BME280_humidity;BME280_pressure;Samples;Min_cycle;Max_cycle;Signal;HPM_P1;HPM_P2
2024/01/22 00:02:05;;;;;;;79.35;35.65;;;-4.30;99.90;;;;;;5052558;28;20029;-78
2024/01/22 00:04:30;;;;;;;74.57;35.22;;;-4.30;99.90;;;;;;5050009;28;20112;-78
2024/01/22 00:06:56;;;;;;;84.25;37.33;;;-4.40;99.90;;;;;;5053082;28;20029;-73
2024/01/22 00:09:21;;;;;;;88.90;40.22;;;-4.40;99.90;;;;;;5053239;28;20021;-78
2024/01/22 00:11:47;;;;;;;86.55;42.75;;;-4.40;99.90;;;;;;5050525;28;20032;-73
2024/01/22 00:14:13;;;;;;;78.88;36.40;;;-4.40;99.90;;;;;;5052881;28;20492;-78
2024/01/22 00:16:39;;;;;;;90.50;42.03;;;-4.40;99.90;;;;;;5052695;28;20107;-78
2024/01/22 00:19:06;;;;;;;100.00;42.72;;;-4.40;99.90;;;;;;5048800;28;20041;-74
2024/01/22 00:21:32;;;;;;;90.20;41.75;;;-4.50;99.90;;;;;;5052604;28;20044;-78
2024/01/22 00:23:57;;;;;;;96.65;42.10;;;-4.50;99.90;;;;;;5051135;28;20482;-78
2024/01/22 00:26:23;;;;;;;110.65;47.17;;;-4.50;99.90;;;;;;5050983;28;20111;-74
2024/01/22 00:28:49;;;;;;;85.70;38.25;;;-4.60;99.90;;;;;;5052603;28;20021;-74
2024/01/22 00:31:14;;;;;;;67.72;33.33;;;-4.60;99.90;;;;;;5052637;28;20021;-78
2024/01/22 00:33:43;;;;;;;67.43;30.10;;;-4.70;99.90;;;;;;5053364;28;20107;-74
2024/01/22 00:36:14;;;;;;;94.63;42.70;;;-4.70;99.90;;;;;;5056838;28;20100;-78
2024/01/22 00:38:41;;;;;;;104.67;44.47;;;-4.70;99.90;;;;;;5056129;28;20024;-78
2024/01/22 00:41:07;;;;;;;85.32;39.80;;;-4.70;99.90;;;;;;5056271;28;20302;-73
2024/01/22 00:43:32;;;;;;;93.55;39.15;;;-4.70;99.90;;;;;;5054957;28;20375;-73
2024/01/22 00:46:00;;;;;;;121.43;51.30;;;-4.80;99.90;;;;;;5055340;28;20047;-78
2024/01/22 00:48:26;;;;;;;95.13;42.33;;;-4.90;99.90;;;;;;5052639;28;20022;-73
2024/01/22 00:50:51;;;;;;;120.78;53.58;;;-4.90;99.90;;;;;;5044022;28;20109;-74
2024/01/22 00:53:17;;;;;;;102.90;44.33;;;-4.90;99.90;;;;;;5068178;28;20107;-73
2024/01/22 00:55:43;;;;;;;104.53;45.47;;;-5.00;99.90;;;;;;5068989;28;20529;-78
2024/01/22 00:58:08;;;;;;;95.45;42.70;;;-5.10;99.90;;;;;;5072401;28;20055;-73
2024/01/22 01:00:35;;;;;;;91.82;40.58;;;-5.10;99.90;;;;;;5073359;28;20034;-73
2024/01/22 01:03:01;;;;;;;106.72;46.38;;;-5.20;99.90;;;;;;5067882;28;20035;-79
2024/01/22 01:05:26;;;;;;;89.07;41.38;;;-5.30;99.90;;;;;;5055319;28;20024;-73
2024/01/22 01:07:52;;;;;;;70.47;34.88;;;-5.50;99.90;;;;;;5062590;28;20020;-78
2024/01/22 01:10:18;;;;;;;65.68;28.75;;;-5.50;99.90;;;;;;5075112;28;20028;-77
2024/01/22 01:12:43;;;;;;;121.63;60.75;;;-5.50;99.90;;;;;;5066100;28;20021;-73
2024/01/22 01:15:10;;;;;;;94.55;47.97;;;-5.40;99.90;;;;;;5055117;28;20382;-73
2024/01/22 01:17:38;;;;;;;82.00;39.78;;;-5.40;99.90;;;;;;5062426;28;20394;-77
2024/01/22 01:20:04;;;;;;;65.32;31.83;;;-5.30;99.90;;;;;;5069404;28;20036;-78
2024/01/22 01:22:31;;;;;;;68.68;32.92;;;-5.30;99.90;;;;;;5067108;28;20017;-73
2024/01/22 01:24:57;;;;;;;75.47;31.88;;;-5.40;99.90;;;;;;5068028;28;20382;-78
2024/01/22 01:27:23;;;;;;;57.53;28.75;;;-5.40;99.90;;;;;;5074721;28;20021;-73
2024/01/22 01:29:48;;;;;;;58.13;29.13;;;-5.50;99.90;;;;;;5072723;28;20389;-73
2024/01/22 01:32:14;;;;;;;60.05;26.38;;;-5.50;99.90;;;;;;5074639;28;20343;-78
2024/01/22 01:34:40;;;;;;;58.97;27.13;;;-5.50;99.90;;;;;;5074189;28;20032;-78
2024/01/22 01:37:05;;;;;;;51.72;26.02;;;-5.50;99.90;;;;;;5060924;28;20028;-74
2024/01/22 01:39:31;;;;;;;64.53;27.60;;;-5.40;99.90;;;;;;5071780;28;20052;-78
2024/01/22 01:41:57;;;;;;;61.92;27.42;;;-5.40;99.90;;;;;;5054514;28;20037;-78
2024/01/22 01:44:49;;;;;;;66.10;28.13;;;-5.40;99.90;;;;;;5068225;28;20096;-73
2024/01/22 01:47:15;;;;;;;50.47;25.65;;;-5.50;99.90;;;;;;5054037;28;20503;-74
2024/01/22 01:49:41;;;;;;;58.90;26.70;;;-5.50;99.90;;;;;;5065490;28;20050;-73
2024/01/22 01:52:09;;;;;;;68.03;28.88;;;-5.50;99.90;;;;;;5054453;28;20383;-73
2024/01/22 01:54:35;;;;;;;61.22;27.23;;;-5.50;99.90;;;;;;5053131;28;20024;-73
2024/01/22 01:57:01;;;;;;;57.08;27.73;;;-5.60;99.90;;;;;;5054487;28;20052;-74
2024/01/22 01:59:27;;;;;;;64.60;26.92;;;-5.60;99.90;;;;;;5071535;28;20378;-73
2024/01/22 02:01:53;;;;;;;60.15;27.70;;;-5.60;99.90;;;;;;5073640;28;20036;-74
2024/01/22 02:04:19;;;;;;;58.60;25.40;;;-5.70;99.90;;;;;;5068769;28;20021;-79
2024/01/22 02:06:45;;;;;;;58.65;25.48;;;-5.70;99.90;;;;;;5064274;28;20480;-74
2024/01/22 02:09:10;;;;;;;53.72;25.40;;;-5.70;99.90;;;;;;5054690;28;20017;-74
2024/01/22 02:11:36;;;;;;;56.08;28.20;;;-5.70;99.90;;;;;;5053105;28;20028;-74
2024/01/22 02:14:01;;;;;;;56.58;26.50;;;-5.70;99.90;;;;;;5054162;28;20048;-80
2024/01/22 02:16:27;;;;;;;70.32;28.45;;;-5.70;99.90;;;;;;5051548;28;20025;-74
2024/01/22 02:18:53;;;;;;;58.22;25.02;;;-5.80;99.90;;;;;;5054369;28;20363;-74
2024/01/22 02:21:18;;;;;;;51.53;25.27;;;-5.80;99.90;;;;;;5054370;28;20454;-79
2024/01/22 02:23:44;;;;;;;51.55;25.42;;;-6.00;99.90;;;;;;5054086;28;20028;-79
2024/01/22 02:26:10;;;;;;;50.05;25.52;;;-6.00;99.90;;;;;;5053777;28;20021;-74
2024/01/22 02:28:35;;;;;;;50.05;25.08;;;-6.10;99.90;;;;;;5052985;28;20059;-73
2024/01/22 02:31:02;;;;;;;47.83;25.13;;;-6.20;99.90;;;;;;5046805;28;20029;-78
2024/01/22 02:33:28;;;;;;;53.28;25.13;;;-6.30;99.90;;;;;;5051535;28;20048;-74
2024/01/22 02:35:53;;;;;;;53.78;24.92;;;-6.30;99.90;;;;;;5053112;28;20041;-78
2024/01/22 02:38:19;;;;;;;55.38;27.30;;;-6.40;99.90;;;;;;5054829;28;20029;-72
2024/01/22 02:40:45;;;;;;;64.38;28.25;;;-6.50;99.90;;;;;;5054104;28;20438;-77
2024/01/22 02:43:10;;;;;;;55.80;25.20;;;-6.50;99.90;;;;;;5054378;28;20511;-74
2024/01/22 02:45:36;;;;;;;67.72;29.05;;;-6.50;99.90;;;;;;5054030;28;20060;-78
2024/01/22 02:48:02;;;;;;;77.45;39.25;;;-6.50;99.90;;;;;;5042080;28;20021;-79
2024/01/22 02:50:27;;;;;;;66.38;33.67;;;-6.50;99.90;;;;;;5053610;28;20029;-74
2024/01/22 02:52:53;;;;;;;89.57;36.60;;;-6.50;99.90;;;;;;5052205;28;20024;-76
2024/01/22 02:55:19;;;;;;;94.35;37.17;;;-6.50;99.90;;;;;;5052524;28;20029;-74
2024/01/22 02:57:44;;;;;;;65.78;29.67;;;-6.50;99.90;;;;;;5051751;28;20014;-74
2024/01/22 03:00:10;;;;;;;67.13;28.13;;;-6.50;99.90;;;;;;5053544;28;20386;-78
2024/01/22 03:02:36;;;;;;;54.92;25.65;;;-6.50;99.90;;;;;;5053568;28;20023;-78
2024/01/22 03:05:02;;;;;;;43.03;20.95;;;-6.40;99.90;;;;;;5050402;28;20036;-78
2024/01/22 03:07:27;;;;;;;51.10;21.58;;;-6.50;99.90;;;;;;5068252;28;20032;-78
2024/01/22 03:09:53;;;;;;;63.58;25.90;;;-6.50;99.90;;;;;;5052450;28;20048;-78
2024/01/22 03:12:19;;;;;;;52.55;24.33;;;-6.50;99.90;;;;;;5054554;28;20103;-78
2024/01/22 03:14:44;;;;;;;46.95;22.05;;;-6.50;99.90;;;;;;5054063;28;20385;-78
2024/01/22 03:17:10;;;;;;;46.10;21.08;;;-6.60;99.90;;;;;;5053687;28;20440;-74
2024/01/22 03:19:38;;;;;;;43.78;21.00;;;-6.60;99.90;;;;;;5053702;28;20060;-74
2024/01/22 03:22:04;;;;;;;51.55;22.10;;;-6.70;99.90;;;;;;5052494;28;20037;-78
2024/01/22 03:24:30;;;;;;;56.83;24.43;;;-6.70;99.90;;;;;;5053478;28;20052;-78
2024/01/22 03:26:55;;;;;;;342.17;128.17;;;-6.70;99.90;;;;;;5052911;28;20024;-74
2024/01/22 03:29:21;;;;;;;257.40;84.95;;;-6.70;99.90;;;;;;5053475;28;20061;-78
2024/01/22 03:31:47;;;;;;;218.57;73.35;;;-6.70;99.90;;;;;;5053302;28;20183;-79
2024/01/22 03:34:12;;;;;;;110.55;42.10;;;-6.70;99.90;;;;;;5053646;28;20029;-79
2024/01/22 03:36:38;;;;;;;109.50;41.40;;;-6.70;99.90;;;;;;5045924;28;20106;-78
2024/01/22 03:39:04;;;;;;;68.97;32.93;;;-6.80;99.90;;;;;;5052393;28;20470;-78
2024/01/22 03:41:29;;;;;;;63.65;29.02;;;-6.90;99.90;;;;;;5053195;28;20059;-78
2024/01/22 03:43:55;;;;;;;64.93;28.80;;;-7.00;99.90;;;;;;5053597;28;20021;-79
2024/01/22 03:46:21;;;;;;;71.72;30.10;;;-7.20;99.90;;;;;;5053038;28;20033;-72
2024/01/22 03:48:46;;;;;;;58.95;25.92;;;-7.30;99.90;;;;;;5053549;28;20536;-72
2024/01/22 03:51:12;;;;;;;57.80;23.00;;;-7.40;99.90;;;;;;5051759;28;20017;-72
2024/01/22 03:53:38;;;;;;;45.60;23.97;;;-7.50;99.90;;;;;;5050267;28;20029;-78
2024/01/22 03:56:05;;;;;;;48.92;21.85;;;-7.50;99.90;;;;;;5051962;28;20044;-78
2024/01/22 03:58:32;;;;;;;53.03;25.10;;;-7.50;99.90;;;;;;5051254;28;20501;-72
2024/01/22 04:00:58;;;;;;;54.35;24.05;;;-7.40;99.90;;;;;;5059245;28;20112;-72
2024/01/22 04:03:24;;;;;;;51.63;25.77;;;-7.40;99.90;;;;;;5051138;28;20021;-77
2024/01/22 04:05:50;;;;;;;49.58;23.35;;;-7.40;99.90;;;;;;5052376;28;20028;-71
2024/01/22 04:08:15;;;;;;;51.23;22.50;;;-7.40;99.90;;;;;;5066608;28;20021;-72
2024/01/22 04:10:42;;;;;;;44.30;21.35;;;-7.30;99.90;;;;;;5056811;28;20100;-73
2024/01/22 04:13:08;;;;;;;40.72;19.05;;;-7.30;99.90;;;;;;5055230;28;20056;-78
2024/01/22 04:15:34;;;;;;;36.03;18.53;;;-7.20;99.90;;;;;;5052830;28;20496;-73
2024/01/22 04:18:00;;;;;;;49.40;22.43;;;-7.20;99.90;;;;;;5047882;28;20037;-78
2024/01/22 04:20:25;;;;;;;48.20;20.90;;;-7.10;99.90;;;;;;5056439;28;20064;-73
2024/01/22 04:22:51;;;;;;;42.03;19.05;;;-7.10;99.90;;;;;;5056313;28;20024;-77
2024/01/22 04:25:17;;;;;;;35.80;17.70;;;-7.00;99.90;;;;;;5061731;28;20442;-78
2024/01/22 04:27:43;;;;;;;35.92;17.33;;;-7.00;99.90;;;;;;5057123;28;20021;-78
2024/01/22 04:30:09;;;;;;;33.30;17.40;;;-7.00;99.90;;;;;;5056228;28;20061;-73
2024/01/22 04:32:34;;;;;;;37.13;17.48;;;-7.00;99.90;;;;;;5055202;28;20025;-78
2024/01/22 04:35:01;;;;;;;48.73;19.73;;;-7.00;99.90;;;;;;5054865;28;20017;-78
2024/01/22 04:37:27;;;;;;;45.05;21.70;;;-7.00;99.90;;;;;;5068717;28;20048;-78
2024/01/22 04:39:53;;;;;;;44.30;18.83;;;-7.00;99.90;;;;;;5067682;28;20056;-78
2024/01/22 04:42:20;;;;;;;54.70;21.67;;;-7.10;99.90;;;;;;5073530;28;20024;-72
2024/01/22 04:44:46;;;;;;;60.03;24.45;;;-7.20;99.90;;;;;;5075384;28;20071;-73
2024/01/22 04:47:12;;;;;;;69.83;25.97;;;-7.20;99.90;;;;;;5052312;28;20021;-77
2024/01/22 04:49:38;;;;;;;69.75;26.77;;;-7.20;99.90;;;;;;5067700;28;20019;-78
2024/01/22 04:52:04;;;;;;;44.40;20.73;;;-7.20;99.90;;;;;;5074586;28;20044;-78
2024/01/22 04:54:30;;;;;;;49.20;23.30;;;-7.10;99.90;;;;;;5070986;28;20107;-73
2024/01/22 04:56:55;;;;;;;61.07;27.47;;;-7.10;99.90;;;;;;5073580;28;20150;-79
2024/01/22 04:59:21;;;;;;;104.38;43.75;;;-7.00;99.90;;;;;;5073903;28;20042;-73
2024/01/22 05:01:47;;;;;;;105.37;44.90;;;-6.90;99.90;;;;;;5061314;28;20036;-78
2024/01/22 05:04:12;;;;;;;61.87;25.77;;;-6.90;99.90;;;;;;5073971;28;20025;-73
2024/01/22 05:06:38;;;;;;;63.93;26.73;;;-6.90;99.90;;;;;;5074936;28;20107;-78
2024/01/22 05:09:04;;;;;;;59.83;24.70;;;-7.00;99.90;;;;;;5075367;28;20528;-73
2024/01/22 05:11:31;;;;;;;70.67;28.43;;;-7.00;99.90;;;;;;5074601;28;20016;-77
2024/01/22 05:13:57;;;;;;;73.70;28.60;;;-7.10;99.90;;;;;;5074959;28;20025;-73
2024/01/22 05:16:23;;;;;;;78.33;31.13;;;-7.20;99.90;;;;;;5061184;28;20016;-78
2024/01/22 05:18:51;;;;;;;64.87;28.93;;;-7.20;99.90;;;;;;5073053;28;20060;-72
2024/01/22 05:21:17;;;;;;;59.67;28.03;;;-7.30;99.90;;;;;;5070620;28;20485;-79
2024/01/22 05:23:43;;;;;;;54.47;22.73;;;-7.40;99.90;;;;;;5073878;28;20098;-73
2024/01/22 05:26:09;;;;;;;60.50;22.00;;;-7.50;99.90;;;;;;5071544;28;20021;-77
2024/01/22 05:28:36;;;;;;;47.40;21.67;;;-7.50;99.90;;;;;;5061750;28;20032;-78
2024/01/22 05:31:02;;;;;;;54.50;22.57;;;-7.50;99.90;;;;;;5056498;28;20024;-78
2024/01/22 05:33:28;;;;;;;50.93;22.57;;;-7.50;99.90;;;;;;5055188;28;20115;-73
2024/01/22 05:35:55;;;;;;;56.08;21.85;;;-7.50;99.90;;;;;;5056284;28;20021;-79
2024/01/22 05:38:21;;;;;;;55.90;22.20;;;-7.50;99.90;;;;;;5052883;28;20044;-71
2024/01/22 05:40:46;;;;;;;51.57;20.53;;;-7.50;99.90;;;;;;5055636;28;20108;-79
2024/01/22 05:43:12;;;;;;;45.73;19.77;;;-7.60;99.90;;;;;;5055599;28;20108;-73
2024/01/22 05:45:38;;;;;;;35.40;17.33;;;-7.60;99.90;;;;;;5055434;28;20433;-80
2024/01/22 05:48:04;;;;;;;47.40;20.07;;;-7.50;99.90;;;;;;5055766;28;20478;-79
2024/01/22 05:50:30;;;;;;;41.27;19.53;;;-7.50;99.90;;;;;;5057498;28;20071;-73
2024/01/22 05:52:56;;;;;;;51.17;21.83;;;-7.40;99.90;;;;;;5071682;28;20070;-79
2024/01/22 05:55:22;;;;;;;55.60;19.63;;;-7.40;99.90;;;;;;5066614;28;20082;-73
2024/01/22 05:57:47;;;;;;;41.37;18.27;;;-7.40;99.90;;;;;;5072611;28;20420;-72
2024/01/22 06:00:14;;;;;;;44.53;18.37;;;-7.30;99.90;;;;;;5067045;28;20060;-78
2024/01/22 06:02:40;;;;;;;45.57;19.17;;;-7.30;99.90;;;;;;5061138;28;20029;-73
2024/01/22 06:05:06;;;;;;;47.67;22.03;;;-7.20;99.90;;;;;;5064761;28;20017;-79
2024/01/22 06:07:32;;;;;;;46.25;19.05;;;-7.20;99.90;;;;;;5069889;28;20062;-78
2024/01/22 06:09:58;;;;;;;41.07;18.90;;;-7.20;99.90;;;;;;5059482;28;20029;-79
2024/01/22 06:12:25;;;;;;;41.97;17.27;;;-7.10;99.90;;;;;;5068385;28;20100;-73
2024/01/22 06:14:51;;;;;;;39.20;16.47;;;-7.10;98.90;;;;;;5065908;28;20103;-79
2024/01/22 06:17:17;;;;;;;36.77;18.03;;;-7.10;98.40;;;;;;5069905;28;20139;-79
2024/01/22 06:19:42;;;;;;;38.23;15.97;;;-7.00;97.70;;;;;;5065769;28;20053;-79
2024/01/22 06:22:08;;;;;;;39.53;16.83;;;-6.90;97.30;;;;;;5068618;28;20133;-75
2024/01/22 06:24:36;;;;;;;36.83;16.30;;;-6.90;96.20;;;;;;5055395;28;20485;-74
2024/01/22 06:27:01;;;;;;;59.00;23.53;;;-7.00;94.50;;;;;;5049091;28;20025;-73
2024/01/22 06:29:27;;;;;;;74.87;28.00;;;-7.00;93.90;;;;;;5048730;28;20202;-75
2024/01/22 06:31:53;;;;;;;68.50;25.00;;;-7.10;93.50;;;;;;5051113;28;20577;-76
2024/01/22 06:34:18;;;;;;;79.37;31.73;;;-7.20;94.10;;;;;;5053674;28;20036;-75
2024/01/22 06:36:44;;;;;;;86.30;33.13;;;-7.30;94.50;;;;;;5055065;28;20480;-75
2024/01/22 06:39:09;;;;;;;82.67;32.93;;;-7.40;95.30;;;;;;5050076;28;20111;-75
2024/01/22 06:41:35;;;;;;;82.60;35.23;;;-7.50;96.50;;;;;;5058561;28;20131;-75
2024/01/22 06:44:01;;;;;;;96.00;41.37;;;-7.50;98.10;;;;;;5051708;28;20106;-74
2024/01/22 06:46:27;;;;;;;127.13;49.53;;;-7.50;99.30;;;;;;5061298;28;20489;-75
2024/01/22 06:48:52;;;;;;;112.80;44.90;;;-7.60;99.90;;;;;;5064524;28;20029;-76
2024/01/22 06:51:18;;;;;;;115.53;45.93;;;-7.60;99.90;;;;;;5050702;28;20455;-76
2024/01/22 06:53:44;;;;;;;68.40;28.43;;;-7.60;99.90;;;;;;5059653;28;20096;-75
2024/01/22 06:56:09;;;;;;;97.83;44.00;;;-7.50;99.90;;;;;;5054051;28;20024;-75
2024/01/22 06:58:36;;;;;;;125.00;47.37;;;-7.50;99.90;;;;;;5061411;28;20028;-74
2024/01/22 07:01:04;;;;;;;117.67;46.20;;;-7.50;99.90;;;;;;5048217;28;20047;-74
2024/01/22 07:03:30;;;;;;;129.80;52.47;;;-7.50;99.90;;;;;;5057891;28;20025;-75
2024/01/22 07:05:56;;;;;;;143.47;54.70;;;-7.50;99.90;;;;;;5049203;28;20481;-74
2024/01/22 07:08:21;;;;;;;142.10;56.43;;;-7.50;99.90;;;;;;5050443;28;20020;-74
2024/01/22 07:10:48;;;;;;;182.23;64.40;;;-7.50;99.90;;;;;;5062870;28;20028;-74
2024/01/22 07:13:14;;;;;;;106.70;46.27;;;-7.50;99.90;;;;;;5068195;28;20454;-75
2024/01/22 07:15:40;;;;;;;156.53;54.47;;;-7.50;99.90;;;;;;5069922;28;20051;-74
2024/01/22 07:18:07;;;;;;;156.43;61.03;;;-7.40;99.90;;;;;;5068292;28;20045;-74
2024/01/22 07:20:33;;;;;;;173.80;58.90;;;-7.40;99.90;;;;;;5070342;28;20029;-75
2024/01/22 07:22:59;;;;;;;132.18;53.88;;;-7.30;99.90;;;;;;5057921;28;20024;-74
2024/01/22 07:25:25;;;;;;;130.10;51.27;;;-7.30;99.90;;;;;;5070589;28;20025;-74
2024/01/22 07:27:51;;;;;;;124.97;50.87;;;-7.30;99.90;;;;;;5065953;28;20025;-74
2024/01/22 07:30:17;;;;;;;145.00;53.00;;;-7.20;99.90;;;;;;5067395;28;20028;-75
2024/01/22 07:32:44;;;;;;;96.50;37.50;;;-7.10;99.90;;;;;;5053746;28;20447;-75
2024/01/22 07:35:11;;;;;;;48.53;23.13;;;-7.00;99.90;;;;;;5063622;28;20466;-81
2024/01/22 07:37:38;;;;;;;55.28;25.58;;;-6.80;99.90;;;;;;5069782;28;20024;-82
2024/01/22 07:40:05;;;;;;;90.40;36.90;;;-6.70;99.90;;;;;;5070129;28;20036;-82
2024/01/22 07:42:33;;;;;;;127.55;48.05;;;-6.50;99.90;;;;;;5043900;28;20051;-82
2024/01/22 07:44:58;;;;;;;353.57;121.43;;;-6.30;99.90;;;;;;5068710;28;20016;-83
2024/01/22 07:47:24;;;;;;;85.10;35.47;;;-6.10;99.90;;;;;;5068776;28;20107;-82
2024/01/22 07:49:50;;;;;;;67.80;30.50;;;-6.00;99.90;;;;;;5069202;28;20052;-81
2024/01/22 07:52:15;;;;;;;164.02;59.58;;;-5.70;99.90;;;;;;5059521;28;20016;-83
2024/01/22 07:54:41;;;;;;;133.80;52.55;;;-5.50;99.90;;;;;;5071706;28;20021;-82
2024/01/22 07:57:10;;;;;;;93.95;41.25;;;-5.30;99.90;;;;;;5070563;28;20020;-82
2024/01/22 07:59:37;;;;;;;103.78;38.95;;;-5.00;99.90;;;;;;5055844;28;20162;-82
2024/01/22 08:02:04;;;;;;;103.22;45.35;;;-4.70;98.20;;;;;;5049496;28;20504;-82
2024/01/22 08:04:30;;;;;;;87.78;34.80;;;-4.40;95.70;;;;;;5064609;28;20386;-84
2024/01/22 08:06:56;;;;;;;84.22;35.38;;;-4.10;94.50;;;;;;5045041;28;20024;-80
2024/01/22 08:09:22;;;;;;;105.63;41.00;;;-3.80;92.90;;;;;;5069137;28;20082;-81
2024/01/22 08:11:48;;;;;;;82.13;32.40;;;-3.50;89.50;;;;;;5069957;28;20029;-83
2024/01/22 08:14:14;;;;;;;71.63;29.25;;;-3.20;87.00;;;;;;5068608;28;20009;-84
2024/01/22 08:16:40;;;;;;;63.90;23.98;;;-2.90;82.40;;;;;;5070710;28;20462;-83
2024/01/22 08:19:05;;;;;;;36.15;14.35;;;-2.60;80.90;;;;;;5067598;28;20413;-83
2024/01/22 08:21:31;;;;;;;32.10;13.07;;;-2.30;75.70;;;;;;5063127;28;20029;-82
2024/01/22 08:23:57;;;;;;;36.55;17.02;;;-2.10;73.20;;;;;;5054288;28;20150;-82
2024/01/22 08:26:22;;;;;;;49.88;24.20;;;-1.80;70.80;;;;;;5052484;28;20044;-75
2024/01/22 08:28:48;;;;;;;32.03;15.00;;;-1.60;67.60;;;;;;5052431;28;20029;-75
2024/01/22 08:31:14;;;;;;;31.48;14.55;;;-1.50;65.30;;;;;;5052178;28;20009;-81
2024/01/22 08:33:39;;;;;;;30.15;16.25;;;-1.40;64.40;;;;;;5051191;28;20040;-81
2024/01/22 08:36:06;;;;;;;35.90;17.23;;;-1.20;62.40;;;;;;5050807;28;20079;-81
2024/01/22 08:38:32;;;;;;;19.40;9.73;;;-1.00;60.50;;;;;;5051851;28;20025;-75
2024/01/22 08:40:58;;;;;;;24.60;12.73;;;-0.80;59.00;;;;;;5051503;28;20055;-75
2024/01/22 08:43:23;;;;;;;20.25;10.38;;;-0.70;58.70;;;;;;5051452;28;20029;-76
2024/01/22 08:45:49;;;;;;;17.73;9.88;;;-0.50;57.90;;;;;;5050508;28;20075;-76
2024/01/22 08:48:15;;;;;;;27.50;12.05;;;-0.30;56.80;;;;;;5052245;28;20020;-75
2024/01/22 08:50:41;;;;;;;28.13;14.27;;;-0.20;56.70;;;;;;5052236;28;20025;-75
2024/01/22 08:53:06;;;;;;;23.95;12.00;;;0.00;56.50;;;;;;5051643;28;20389;-75
2024/01/22 08:55:32;;;;;;;20.63;9.98;;;0.20;55.70;;;;;;5052922;28;20013;-75
2024/01/22 08:57:58;;;;;;;19.83;10.05;;;0.30;55.00;;;;;;5056567;28;20474;-75
2024/01/22 09:00:24;;;;;;;29.88;12.93;;;0.50;54.90;;;;;;5056016;28;20494;-80
2024/01/22 09:02:50;;;;;;;37.25;16.20;;;0.60;55.00;;;;;;5055619;28;20428;-76
2024/01/22 09:05:17;;;;;;;68.78;22.92;;;0.70;55.30;;;;;;5054451;28;20017;-81
2024/01/22 09:07:43;;;;;;;49.45;21.63;;;0.90;55.60;;;;;;5054051;28;20017;-75
2024/01/22 09:10:11;;;;;;;33.08;15.48;;;1.00;56.60;;;;;;5055367;28;20017;-75
2024/01/22 09:12:38;;;;;;;31.67;13.05;;;1.10;56.80;;;;;;5055607;28;20036;-76
2024/01/22 09:15:05;;;;;;;48.25;17.45;;;1.20;57.20;;;;;;5060776;28;20020;-81
2024/01/22 09:17:32;;;;;;;53.40;18.55;;;1.20;55.80;;;;;;5059837;28;20494;-76
2024/01/22 09:19:58;;;;;;;63.42;25.83;;;1.40;54.20;;;;;;5064858;28;20029;-80
2024/01/22 09:22:25;;;;;;;27.05;14.10;;;1.60;53.60;;;;;;5060279;28;20083;-75
2024/01/22 09:24:51;;;;;;;17.95;9.90;;;1.70;53.00;;;;;;5064241;28;20144;-76
2024/01/22 09:27:17;;;;;;;24.48;12.55;;;1.80;51.70;;;;;;5059671;28;20021;-76
2024/01/22 09:29:43;;;;;;;18.23;8.38;;;2.10;51.40;;;;;;5063651;28;20462;-76
2024/01/22 09:32:09;;;;;;;19.67;10.27;;;2.30;50.80;;;;;;5059817;28;20475;-76
2024/01/22 09:34:38;;;;;;;20.90;10.35;;;2.50;50.10;;;;;;5062181;28;20029;-81
2024/01/22 09:37:05;;;;;;;17.30;8.90;;;2.60;49.90;;;;;;5061105;28;20021;-81
2024/01/22 09:39:31;;;;;;;23.30;10.75;;;2.80;49.50;;;;;;5063345;28;20025;-80
2024/01/22 09:41:57;;;;;;;20.80;8.85;;;3.00;49.70;;;;;;5060202;28;20127;-81
2024/01/22 09:44:24;;;;;;;21.60;9.88;;;3.10;49.30;;;;;;5061813;28;20021;-80
2024/01/22 09:46:50;;;;;;;19.42;8.85;;;3.20;48.80;;;;;;5062017;28;20425;-76
2024/01/22 09:49:16;;;;;;;18.15;9.30;;;3.30;48.20;;;;;;5063804;28;20013;-80
2024/01/22 09:51:44;;;;;;;20.90;10.02;;;3.30;47.90;;;;;;5061753;28;20021;-76
2024/01/22 09:54:12;;;;;;;25.38;9.75;;;3.40;47.90;;;;;;5063807;28;20021;-77
2024/01/22 09:56:39;;;;;;;15.20;9.40;;;3.50;47.20;;;;;;5061333;28;20028;-76
2024/01/22 09:59:16;;;;;;;22.63;11.18;;;3.40;47.50;;;;;;5061748;28;20148;-80
2024/01/22 10:01:42;;;;;;;39.92;17.88;;;3.40;46.90;;;;;;5054245;28;20402;-76
2024/01/22 10:04:11;;;;;;;20.25;9.25;;;3.40;46.90;;;;;;5065463;28;20029;-80
2024/01/22 10:06:37;;;;;;;17.30;8.55;;;3.30;46.80;;;;;;5058588;28;20099;-81
2024/01/22 10:09:03;;;;;;;20.98;9.30;;;3.30;46.80;;;;;;5073965;28;20107;-81
2024/01/22 10:11:31;;;;;;;92.80;41.53;;;3.30;47.10;;;;;;5073418;28;20019;-81
2024/01/22 10:13:57;;;;;;;26.83;13.23;;;3.20;47.70;;;;;;5072894;28;20021;-77
2024/01/22 10:16:27;;;;;;;19.77;10.52;;;3.10;47.90;;;;;;5072360;28;20427;-79
2024/01/22 10:18:57;;;;;;;21.73;11.20;;;3.20;48.10;;;;;;5073813;28;20040;-76
2024/01/22 10:21:23;;;;;;;21.60;10.15;;;3.10;48.50;;;;;;5072313;28;20067;-77
2024/01/22 10:24:15;;;;;;;16.67;10.88;;;3.20;48.30;;;;;;5072711;28;20438;-80
2024/01/22 10:26:41;;;;;;;24.65;11.15;;;3.10;48.10;;;;;;5041962;28;20033;-76
2024/01/22 10:29:33;;;;;;;28.02;15.18;;;3.20;48.50;;;;;;5054417;28;20374;-76
2024/01/22 10:32:00;;;;;;;28.92;14.57;;;3.20;48.60;;;;;;5052364;28;20037;-81
2024/01/22 10:34:30;;;;;;;30.35;13.23;;;3.20;48.30;;;;;;5054150;28;20023;-77
2024/01/22 10:37:06;;;;;;;65.82;23.55;;;3.20;48.50;;;;;;5053999;28;20079;-77
2024/01/22 10:39:55;;;;;;;89.95;31.10;;;3.30;48.60;;;;;;5054120;28;20079;-77
2024/01/22 10:42:21;;;;;;;63.13;25.17;;;3.30;48.40;;;;;;5053923;28;20439;-76
2024/01/22 10:44:48;;;;;;;48.85;19.90;;;3.30;48.60;;;;;;5052901;28;20098;-81
2024/01/22 10:47:14;;;;;;;24.17;12.55;;;3.40;48.00;;;;;;5052867;28;20474;-77
2024/01/22 10:49:43;;;;;;;31.80;14.15;;;3.40;47.00;;;;;;5053058;28;20021;-80
2024/01/22 10:52:09;;;;;;;31.20;13.85;;;3.40;46.70;;;;;;5053314;28;20029;-77
2024/01/22 10:54:36;;;;;;;39.17;20.00;;;3.50;46.70;;;;;;5052596;28;20017;-77
2024/01/22 10:57:05;;;;;;;56.78;23.92;;;3.50;46.20;;;;;;5053876;28;20110;-80
2024/01/22 10:59:44;;;;;;;45.53;18.10;;;3.50;46.20;;;;;;5052547;28;20045;-80
2024/01/22 11:02:20;;;;;;;40.03;21.88;;;3.50;45.50;;;;;;5041701;28;20367;-81
2024/01/22 11:04:47;;;;;;;70.35;26.60;;;3.60;45.50;;;;;;5060920;28;20017;-81
2024/01/22 11:07:14;;;;;;;199.35;72.05;;;3.60;45.30;;;;;;5059501;28;20033;-80
2024/01/22 11:09:40;;;;;;;82.88;31.33;;;3.60;45.30;;;;;;5054427;28;20043;-81
2024/01/22 11:12:12;;;;;;;132.00;48.47;;;3.70;45.30;;;;;;5054395;28;20098;-76
2024/01/22 11:14:39;;;;;;;112.53;42.70;;;3.70;45.80;;;;;;5052189;28;20413;-76
2024/01/22 11:17:06;;;;;;;45.80;20.17;;;3.80;45.50;;;;;;5051706;28;20548;-80
2024/01/22 11:19:33;;;;;;;142.70;52.78;;;3.80;45.10;;;;;;5052192;28;20067;-81
2024/01/22 11:22:00;;;;;;;33.95;15.57;;;3.90;45.00;;;;;;5051928;28;20037;-81
2024/01/22 11:24:26;;;;;;;20.05;9.57;;;3.90;44.50;;;;;;5054663;28;20032;-80
2024/01/22 11:26:51;;;;;;;12.90;6.90;;;4.00;44.00;;;;;;5053071;28;20406;-81
2024/01/22 11:29:27;;;;;;;54.75;22.10;;;4.00;43.40;;;;;;5054637;28;20016;-81
2024/01/22 11:31:54;;;;;;;37.40;16.13;;;4.10;43.80;;;;;;5051484;28;20037;-81
2024/01/22 11:34:38;;;;;;;24.40;11.48;;;4.20;43.20;;;;;;5052814;28;20051;-76
2024/01/22 11:37:04;;;;;;;14.70;7.45;;;4.20;43.50;;;;;;5051783;28;20048;-75
2024/01/22 11:39:32;;;;;;;25.15;10.63;;;4.20;42.90;;;;;;5053626;28;20021;-76
2024/01/22 11:42:22;;;;;;;19.48;10.65;;;4.30;43.10;;;;;;5052131;28;20063;-76
2024/01/22 11:44:49;;;;;;;15.40;8.40;;;4.30;42.80;;;;;;5053163;28;20032;-79
2024/01/22 11:47:16;;;;;;;35.42;15.52;;;4.30;43.10;;;;;;5062240;28;20041;-77
2024/01/22 11:49:42;;;;;;;26.27;14.27;;;4.40;42.90;;;;;;5051832;28;20025;-78
2024/01/22 11:52:18;;;;;;;30.65;15.80;;;4.40;43.00;;;;;;5050916;28;20032;-77
2024/01/22 11:54:55;;;;;;;25.55;12.20;;;4.40;43.50;;;;;;5052591;28;20036;-77
2024/01/22 11:57:21;;;;;;;41.95;18.75;;;4.40;44.40;;;;;;5057554;28;20067;-78
2024/01/22 12:00:00;;;;;;;13.32;6.95;;;4.40;44.30;;;;;;5048582;28;20017;-79
2024/01/22 12:02:26;;;;;;;35.75;16.92;;;4.30;44.50;;;;;;5054590;28;20040;-78
2024/01/22 12:05:09;;;;;;;25.73;12.02;;;4.20;44.10;;;;;;5064044;28;20047;-76
2024/01/22 12:07:37;;;;;;;65.93;23.73;;;4.20;44.50;;;;;;5042506;28;20057;-78
2024/01/22 12:10:04;;;;;;;80.25;32.72;;;4.20;44.50;;;;;;5045682;28;20381;-77
2024/01/22 12:12:31;;;;;;;59.70;26.48;;;4.20;44.40;;;;;;5051069;28;20044;-78
2024/01/22 12:14:58;;;;;;;147.80;57.20;;;4.20;44.50;;;;;;5048666;28;20037;-77
2024/01/22 12:17:26;;;;;;;97.82;39.75;;;4.30;44.80;;;;;;5050797;28;20029;-76
2024/01/22 12:19:56;;;;;;;89.40;36.47;;;4.30;44.90;;;;;;5049265;28;20041;-75
2024/01/22 12:22:22;;;;;;;33.75;14.77;;;4.30;44.60;;;;;;5056872;28;20091;-76
2024/01/22 12:25:14;;;;;;;24.00;10.88;;;4.40;44.70;;;;;;5050252;28;20025;-77
2024/01/22 12:27:40;;;;;;;16.15;7.63;;;4.40;44.60;;;;;;5041268;28;20146;-77